createdAt,value
2022-12-04T00:01:26.618Z,95967.38
2022-12-04T00:03:55.446Z,95970.09
2022-12-04T00:06:24.113Z,95966.91
2022-12-04T00:08:53.111Z,95965.88
2022-12-04T00:11:23.171Z,95954.38
2022-12-04T00:13:51.509Z,95952.97
2022-12-04T00:16:22.529Z,95952.28
2022-12-04T00:18:52.632Z,95957.56
2022-12-04T00:21:21.643Z,95957.81
2022-12-04T00:23:50.111Z,95954.25
2022-12-04T00:26:19.731Z,95961.00
2022-12-04T00:28:48.882Z,95966.03
2022-12-04T00:31:18.992Z,95960.47
2022-12-04T00:33:47.495Z,95948.53
2022-12-04T00:36:19.368Z,95966.16
2022-12-04T00:38:47.687Z,95952.50
2022-12-04T00:41:18.063Z,95951.63
2022-12-04T00:43:46.783Z,95937.91
2022-12-04T00:46:15.619Z,95950.09
2022-12-04T00:48:44.298Z,95947.16
2022-12-04T00:51:14.405Z,95948.19
2022-12-04T00:53:44.465Z,95947.94
2022-12-04T00:56:15.228Z,95962.84
2022-12-04T00:58:43.979Z,95961.75
2022-12-04T01:01:13.958Z,95965.72
2022-12-04T01:03:43.024Z,95963.03
2022-12-04T01:06:19.246Z,95960.13
2022-12-04T01:08:49.293Z,95958.09
2022-12-04T01:11:18.010Z,95953.25
2022-12-04T01:13:46.634Z,95957.38
2022-12-04T01:16:19.053Z,95963.00
2022-12-04T01:18:47.857Z,95959.38
2022-12-04T01:21:16.181Z,95957.91
2022-12-04T01:23:44.977Z,95961.63
2022-12-04T01:26:14.716Z,95966.09
2022-12-04T01:28:43.315Z,95959.31
2022-12-04T01:31:13.874Z,95955.41
2022-12-04T01:33:42.177Z,95961.38
2022-12-04T01:36:13.392Z,95963.03
2022-12-04T01:38:42.234Z,95957.78
2022-12-04T01:41:18.951Z,95956.81
2022-12-04T01:44:06.859Z,95970.84
2022-12-04T01:46:35.239Z,95951.47
2022-12-04T01:49:04.853Z,95954.75
2022-12-04T01:51:36.135Z,95946.91
2022-12-04T01:54:07.116Z,95952.84
2022-12-04T01:56:40.888Z,95963.91
2022-12-04T01:59:10.499Z,95953.88
2022-12-04T02:01:44.206Z,95948.34
2022-12-04T02:04:12.563Z,95948.78
2022-12-04T02:06:40.864Z,95944.69
2022-12-04T02:09:09.148Z,95933.97
2022-12-04T02:11:40.318Z,95928.38
2022-12-04T02:14:12.516Z,95916.50
2022-12-04T02:16:47.074Z,95906.38
2022-12-04T02:19:43.956Z,95914.53
2022-12-04T02:22:19.503Z,95912.69
2022-12-04T02:24:54.302Z,95906.59
2022-12-04T02:27:35.124Z,95908.16
2022-12-04T02:30:07.410Z,95911.97
2022-12-04T02:32:40.530Z,95912.53
2022-12-04T02:35:14.040Z,95916.31
2022-12-04T02:37:45.594Z,95910.28
2022-12-04T02:40:20.343Z,95910.59
2022-12-04T02:42:51.747Z,95902.84
2022-12-04T02:45:24.831Z,95887.09
2022-12-04T02:47:53.970Z,95885.75
2022-12-04T02:50:23.240Z,95884.63
2022-12-04T02:52:53.010Z,95889.19
2022-12-04T02:55:25.212Z,95885.00
2022-12-04T02:57:57.332Z,95872.19
2022-12-04T03:00:27.355Z,95878.19
2022-12-04T03:02:58.936Z,95875.81
2022-12-04T03:05:30.763Z,95874.38
2022-12-04T03:08:00.951Z,95868.66
2022-12-04T03:10:32.045Z,95873.38
2022-12-04T03:13:04.756Z,95880.81
2022-12-04T03:15:37.124Z,95869.72
2022-12-04T03:18:09.410Z,95874.13
2022-12-04T03:20:38.239Z,95869.53
2022-12-04T03:23:11.221Z,95872.19
2022-12-04T03:25:44.634Z,95875.97
2022-12-04T03:28:18.313Z,95878.47
2022-12-04T03:30:51.028Z,95881.44
2022-12-04T03:33:21.901Z,95883.56
2022-12-04T03:35:53.863Z,95884.63
2022-12-04T03:38:26.834Z,95869.69
2022-12-04T03:40:58.789Z,95873.75
2022-12-04T03:43:29.320Z,95876.72
2022-12-04T03:46:00.875Z,95876.41
2022-12-04T03:48:32.428Z,95874.59
2022-12-04T03:51:05.011Z,95880.19
2022-12-04T03:53:39.383Z,95885.25
2022-12-04T03:56:11.603Z,95881.13
2022-12-04T03:58:42.679Z,95874.72
2022-12-04T04:01:13.423Z,95874.09
2022-12-04T04:03:44.720Z,95857.72
2022-12-04T04:06:15.664Z,95855.38
2022-12-04T04:08:47.008Z,95858.53
2022-12-04T04:11:19.162Z,95852.19
2022-12-04T04:14:09.086Z,95847.34
2022-12-04T04:16:58.289Z,95846.91
2022-12-04T04:19:47.350Z,95841.91
2022-12-04T04:22:33.697Z,95838.22
2022-12-04T04:25:05.235Z,95834.16
2022-12-04T04:27:33.544Z,95844.59
2022-12-04T04:30:01.932Z,95840.03
2022-12-04T04:32:36.138Z,95850.94
2022-12-04T04:35:11.100Z,95840.03
2022-12-04T04:37:45.498Z,95847.47
2022-12-04T04:40:17.161Z,95843.22
2022-12-04T04:42:49.869Z,95841.53
2022-12-04T04:45:21.635Z,95838.78
2022-12-04T04:47:53.419Z,95833.56
2022-12-04T04:50:22.291Z,95853.84
2022-12-04T04:52:52.514Z,95857.53
2022-12-04T04:55:21.238Z,95838.09
2022-12-04T04:57:49.451Z,95842.66
2022-12-04T05:00:21.635Z,95845.78
2022-12-04T05:02:51.287Z,95851.63
2022-12-04T05:05:19.530Z,95847.38
2022-12-04T05:07:47.832Z,95838.22
2022-12-04T05:10:16.136Z,95842.50
2022-12-04T05:12:44.380Z,95845.69
2022-12-04T05:15:12.829Z,95858.09
2022-12-04T05:17:41.200Z,95853.63
2022-12-04T05:20:11.838Z,95855.06
2022-12-04T05:22:40.092Z,95852.59
2022-12-04T05:25:09.062Z,95848.41
2022-12-04T05:27:37.343Z,95836.31
2022-12-04T05:30:07.108Z,95842.25
2022-12-04T05:32:35.411Z,95848.59
2022-12-04T05:35:09.277Z,95849.81
2022-12-04T05:37:41.645Z,95847.47
2022-12-04T05:40:11.227Z,95837.97
2022-12-04T05:42:39.491Z,95837.56
2022-12-04T05:45:08.667Z,95839.06
2022-12-04T05:47:39.543Z,95855.16
2022-12-04T05:50:10.617Z,95845.69
2022-12-04T05:52:40.344Z,95844.88
2022-12-04T05:55:09.314Z,95846.50
2022-12-04T05:57:37.580Z,95845.16
2022-12-04T06:00:06.993Z,95851.50
2022-12-04T06:02:35.400Z,95844.34
2022-12-04T06:05:03.950Z,95843.63
2022-12-04T06:07:32.239Z,95847.78
2022-12-04T06:10:01.893Z,95842.81
2022-12-04T06:12:31.356Z,95849.97
2022-12-04T06:14:59.807Z,95852.59
2022-12-04T06:17:28.027Z,95854.66
2022-12-04T06:19:56.771Z,95856.28
2022-12-04T06:22:25.109Z,95852.03
2022-12-04T06:24:53.520Z,95840.72
2022-12-04T06:27:28.031Z,95841.00
2022-12-04T06:29:56.995Z,95845.97
2022-12-04T06:32:25.502Z,95849.84
2022-12-04T06:34:54.483Z,95855.59
2022-12-04T06:37:24.568Z,95849.09
2022-12-04T06:39:53.034Z,95855.59
2022-12-04T06:42:22.781Z,95845.97
2022-12-04T06:44:51.088Z,95831.03
2022-12-04T06:47:19.457Z,95832.59
2022-12-04T06:49:50.520Z,95832.16
2022-12-04T06:52:19.072Z,95825.81
2022-12-04T06:54:47.375Z,95833.81
2022-12-04T06:57:15.588Z,95833.97
2022-12-04T06:59:45.200Z,95833.94
2022-12-04T07:02:13.489Z,95837.56
2022-12-04T07:04:41.769Z,95833.69
2022-12-04T07:07:10.682Z,95838.94
2022-12-04T07:09:39.196Z,95842.25
2022-12-04T07:12:08.016Z,95848.16
2022-12-04T07:14:36.279Z,95861.72
2022-12-04T07:17:06.140Z,95877.56
2022-12-04T07:19:34.425Z,95866.06
2022-12-04T07:22:02.683Z,95864.03
2022-12-04T07:24:30.898Z,95868.16
2022-12-04T07:26:59.314Z,95853.00
2022-12-04T07:29:27.578Z,95876.19
2022-12-04T07:31:56.049Z,95857.72
2022-12-04T07:34:25.697Z,95841.75
2022-12-04T07:36:53.960Z,95834.78
2022-12-04T07:39:22.274Z,95820.84
2022-12-04T07:41:50.598Z,95815.31
2022-12-04T07:44:18.814Z,95813.31
2022-12-04T07:46:47.193Z,95830.28
2022-12-04T07:49:15.512Z,95846.81
2022-12-04T07:51:45.105Z,95851.78
2022-12-04T07:54:13.333Z,95857.81
2022-12-04T07:56:41.665Z,95866.81
2022-12-04T07:59:09.854Z,95870.38
2022-12-04T08:01:38.166Z,95853.56
2022-12-04T08:04:06.772Z,95852.44
2022-12-04T08:06:35.962Z,95846.53
2022-12-04T08:09:09.781Z,95835.31
2022-12-04T08:11:38.610Z,95842.00
2022-12-04T08:14:08.810Z,95853.22
2022-12-04T08:16:37.209Z,95855.59
2022-12-04T08:19:05.614Z,95858.75
2022-12-04T08:21:34.344Z,95843.00
2022-12-04T08:24:03.269Z,95843.19
2022-12-04T08:26:34.284Z,95840.78
2022-12-04T08:29:02.977Z,95837.50
2022-12-04T08:31:33.667Z,95838.75
2022-12-04T08:34:03.967Z,95836.84
2022-12-04T08:36:32.529Z,95829.50
2022-12-04T08:39:01.029Z,95844.69
2022-12-04T08:41:29.313Z,95861.19
2022-12-04T08:43:59.580Z,95845.94
2022-12-04T08:46:29.015Z,95847.25
2022-12-04T08:48:57.867Z,95847.00
2022-12-04T08:51:27.967Z,95844.25
2022-12-04T08:53:57.545Z,95864.25
2022-12-04T08:56:27.107Z,95867.78
2022-12-04T08:58:57.947Z,95866.34
2022-12-04T09:01:27.061Z,95853.91
2022-12-04T09:03:55.954Z,95854.16
2022-12-04T09:06:24.991Z,95842.25
2022-12-04T09:08:54.315Z,95849.47
2022-12-04T09:11:24.166Z,95853.56
2022-12-04T09:13:53.093Z,95879.25
2022-12-04T09:16:24.766Z,95861.34
2022-12-04T09:18:53.108Z,95867.59
2022-12-04T09:21:22.848Z,95854.38
2022-12-04T09:23:51.436Z,95856.50
2022-12-04T09:26:22.644Z,95848.28
2022-12-04T09:28:51.535Z,95840.56
2022-12-04T09:31:21.003Z,95843.09
2022-12-04T09:33:50.791Z,95836.59
2022-12-04T09:36:19.093Z,95819.63
2022-12-04T09:38:48.748Z,95819.88
2022-12-04T09:41:40.704Z,95818.00
2022-12-04T09:44:12.028Z,95808.88
2022-12-04T09:46:45.839Z,95808.75
2022-12-04T09:49:18.835Z,95800.94
2022-12-04T09:51:48.079Z,95802.28
2022-12-04T09:54:18.446Z,95814.06
2022-12-04T09:56:52.232Z,95796.56
2022-12-04T09:59:23.027Z,95790.66
2022-12-04T10:01:55.626Z,95797.03
2022-12-04T10:04:25.989Z,95793.91
2022-12-04T10:07:03.055Z,95783.22
2022-12-04T10:09:37.605Z,95804.91
2022-12-04T10:12:11.751Z,95817.88
2022-12-04T10:14:52.338Z,95822.03
2022-12-04T10:17:39.198Z,95793.44
2022-12-04T10:20:18.683Z,95800.56
2022-12-04T10:22:56.768Z,95798.22
2022-12-04T10:25:26.360Z,95795.38
2022-12-04T10:27:58.747Z,95790.25
2022-12-04T10:30:28.683Z,95782.22
2022-12-04T10:32:59.550Z,95774.03
2022-12-04T10:35:31.418Z,95769.25
2022-12-04T10:38:03.339Z,95758.00
2022-12-04T10:40:35.475Z,95764.47
2022-12-04T10:43:07.661Z,95753.78
2022-12-04T10:45:35.985Z,95740.09
2022-12-04T10:48:04.359Z,95743.81
2022-12-04T10:50:33.987Z,95743.25
2022-12-04T10:53:02.169Z,95729.28
2022-12-04T10:55:32.079Z,95720.59
2022-12-04T10:58:00.334Z,95721.63
2022-12-04T11:00:31.908Z,95712.63
2022-12-04T11:03:02.345Z,95704.13
2022-12-04T11:05:34.652Z,95720.84
2022-12-04T11:08:05.344Z,95734.75
2022-12-04T11:10:36.982Z,95753.84
2022-12-04T11:13:07.065Z,95748.44
2022-12-04T11:15:37.413Z,95746.34
2022-12-04T11:18:09.937Z,95737.13
2022-12-04T11:20:45.503Z,95740.13
2022-12-04T11:23:16.468Z,95725.31
2022-12-04T11:25:47.504Z,95718.13
2022-12-04T11:28:41.752Z,95717.81
2022-12-04T11:31:09.750Z,95709.63
2022-12-04T11:33:40.219Z,95717.97
2022-12-04T11:36:20.733Z,95724.66
2022-12-04T11:38:49.116Z,95731.31
2022-12-04T11:41:25.799Z,95729.81
2022-12-04T11:43:59.543Z,95721.66
2022-12-04T11:46:31.870Z,95723.25
2022-12-04T11:49:00.187Z,95732.88
2022-12-04T11:51:39.852Z,95733.69
2022-12-04T11:54:15.291Z,95725.16
2022-12-04T11:56:46.449Z,95701.81
2022-12-04T11:59:30.397Z,95711.22
2022-12-04T12:02:06.048Z,95713.75
2022-12-04T12:04:47.939Z,95702.16
2022-12-04T12:07:25.528Z,95692.53
2022-12-04T12:10:01.065Z,95696.28
2022-12-04T12:12:39.195Z,95698.13
2022-12-04T12:15:16.909Z,95692.75
2022-12-04T12:17:48.914Z,95693.13
2022-12-04T12:20:21.809Z,95685.69
2022-12-04T12:23:18.835Z,95692.78
2022-12-04T12:25:52.692Z,95681.34
2022-12-04T12:28:33.082Z,95675.69
2022-12-04T12:31:12.415Z,95671.03
2022-12-04T12:33:43.469Z,95672.72
2022-12-04T12:36:13.199Z,95661.31
2022-12-04T12:38:48.958Z,95664.94
2022-12-04T12:41:20.223Z,95674.84
2022-12-04T12:43:54.219Z,95670.69
2022-12-04T12:46:26.334Z,95670.09
2022-12-04T12:49:01.344Z,95659.09
2022-12-04T12:51:35.375Z,95673.19
2022-12-04T12:54:16.700Z,95665.66
2022-12-04T12:56:49.927Z,95660.28
2022-12-04T12:59:21.301Z,95664.22
2022-12-04T13:01:59.900Z,95669.88
2022-12-04T13:04:35.003Z,95678.09
2022-12-04T13:07:13.006Z,95681.06
2022-12-04T13:09:46.032Z,95682.31
2022-12-04T13:12:16.576Z,95680.50
2022-12-04T13:14:49.020Z,95674.22
2022-12-04T13:17:20.943Z,95673.91
2022-12-04T13:19:53.952Z,95670.09
2022-12-04T13:22:28.703Z,95664.31
2022-12-04T13:25:22.442Z,95651.56
2022-12-04T13:28:00.203Z,95649.53
2022-12-04T13:30:32.424Z,95649.16
2022-12-04T13:33:42.343Z,95641.75
2022-12-04T13:36:20.245Z,95637.22
2022-12-04T13:39:00.248Z,95634.06
2022-12-04T13:41:30.266Z,95634.59
2022-12-04T13:44:02.843Z,95631.50
2022-12-04T13:46:35.690Z,95638.09
2022-12-04T13:49:23.750Z,95639.44
2022-12-04T13:51:52.144Z,95633.84
2022-12-04T13:54:28.960Z,95647.34
2022-12-04T13:56:59.533Z,95656.44
2022-12-04T13:59:37.787Z,95663.19
2022-12-04T14:02:23.908Z,95662.16
2022-12-04T14:04:57.789Z,95659.28
2022-12-04T14:07:29.399Z,95654.19
2022-12-04T14:09:59.282Z,95658.44
2022-12-04T14:12:31.393Z,95665.53
2022-12-04T14:15:01.623Z,95659.75
2022-12-04T14:17:32.121Z,95662.38
2022-12-04T14:20:07.607Z,95658.34
2022-12-04T14:22:44.201Z,95659.25
2022-12-04T14:25:35.497Z,95661.38
2022-12-04T14:28:25.968Z,95654.16
2022-12-04T14:31:04.900Z,95656.06
2022-12-04T14:33:34.300Z,95664.25
2022-12-04T14:36:04.553Z,95666.06
2022-12-04T14:38:33.985Z,95658.56
2022-12-04T14:41:02.351Z,95660.41
2022-12-04T14:43:39.169Z,95656.88
2022-12-04T14:46:14.193Z,95657.09
2022-12-04T14:48:48.033Z,95647.00
2022-12-04T14:51:21.699Z,95648.56
2022-12-04T14:53:52.159Z,95646.78
2022-12-04T14:56:36.627Z,95659.16
2022-12-04T14:59:13.476Z,95660.56
2022-12-04T15:01:42.036Z,95658.00
2022-12-04T15:04:15.503Z,95652.63
2022-12-04T15:06:45.020Z,95656.09
2022-12-04T15:09:36.261Z,95656.09
2022-12-04T15:12:35.469Z,95654.38
2022-12-04T15:15:12.642Z,95659.44
2022-12-04T15:17:40.965Z,95657.13
2022-12-04T15:20:11.942Z,95648.47
2022-12-04T15:22:40.209Z,95658.03
2022-12-04T15:25:16.333Z,95650.31
2022-12-04T15:27:44.667Z,95643.47
2022-12-04T15:30:19.900Z,95654.50
2022-12-04T15:32:50.449Z,95660.56
2022-12-04T15:35:23.360Z,95679.59
2022-12-04T15:37:51.738Z,95687.63
2022-12-04T15:40:22.494Z,95694.41
2022-12-04T15:42:51.264Z,95695.16
2022-12-04T15:45:35.066Z,95705.19
2022-12-04T15:48:03.560Z,95709.69
2022-12-04T15:50:32.281Z,95711.66
2022-12-04T15:53:04.142Z,95715.44
2022-12-04T15:55:34.865Z,95718.72
2022-12-04T15:58:04.689Z,95728.09
2022-12-04T16:00:37.320Z,95726.03
2022-12-04T16:03:08.912Z,95728.78
2022-12-04T16:05:37.497Z,95730.94
2022-12-04T16:08:24.035Z,95725.72
2022-12-04T16:11:00.123Z,95730.72
2022-12-04T16:13:31.102Z,95737.91
2022-12-04T16:16:01.178Z,95736.34
2022-12-04T16:18:29.832Z,95732.56
2022-12-04T16:20:58.251Z,95737.94
2022-12-04T16:23:26.979Z,95739.59
2022-12-04T16:25:55.319Z,95744.69
2022-12-04T16:28:23.776Z,95746.44
2022-12-04T16:30:53.064Z,95740.25
2022-12-04T16:33:22.807Z,95742.19
2022-12-04T16:35:51.169Z,95739.84
2022-12-04T16:38:19.408Z,95750.06
2022-12-04T16:40:48.555Z,95750.84
2022-12-04T16:43:18.298Z,95745.63
2022-12-04T16:45:48.143Z,95754.75
2022-12-04T16:48:16.545Z,95744.25
2022-12-04T16:50:46.783Z,95741.09
2022-12-04T16:53:17.853Z,95753.84
2022-12-04T16:55:47.213Z,95752.63
2022-12-04T16:58:15.646Z,95749.50
2022-12-04T17:00:45.163Z,95745.59
2022-12-04T17:03:18.398Z,95754.88
2022-12-04T17:05:48.102Z,95750.34
2022-12-04T17:08:16.414Z,95755.91
2022-12-04T17:10:44.737Z,95756.44
2022-12-04T17:13:13.144Z,95755.19
2022-12-04T17:15:41.408Z,95772.03
2022-12-04T17:18:13.060Z,95771.75
2022-12-04T17:20:43.908Z,95777.69
2022-12-04T17:23:13.796Z,95778.06
2022-12-04T17:25:42.155Z,95779.97
2022-12-04T17:28:10.429Z,95772.03
2022-12-04T17:30:38.729Z,95765.53
2022-12-04T17:33:07.003Z,95768.59
2022-12-04T17:35:35.269Z,95761.53
2022-12-04T17:38:06.129Z,95774.09
2022-12-04T17:40:35.925Z,95773.19
2022-12-04T17:43:04.343Z,95770.16
2022-12-04T17:45:32.605Z,95770.25
2022-12-04T17:48:01.402Z,95765.06
2022-12-04T17:50:29.731Z,95760.56
2022-12-04T17:52:58.143Z,95765.91
2022-12-04T17:55:26.430Z,95762.53
2022-12-04T17:57:56.231Z,95755.47
2022-12-04T18:00:26.097Z,95768.16
2022-12-04T18:02:54.432Z,95779.66
2022-12-04T18:05:22.957Z,95785.25
2022-12-04T18:07:51.251Z,95778.19
2022-12-04T18:10:19.725Z,95779.59
2022-12-04T18:12:48.018Z,95785.94
2022-12-04T18:15:17.783Z,95781.13
2022-12-04T18:17:46.033Z,95782.25
2022-12-04T18:20:14.399Z,95785.28
2022-12-04T18:22:42.641Z,95779.72
2022-12-04T18:25:11.327Z,95786.28
2022-12-04T18:27:41.979Z,95784.34
2022-12-04T18:30:11.979Z,95780.91
2022-12-04T18:32:41.573Z,95778.06
2022-12-04T18:35:10.339Z,95783.56
2022-12-04T18:37:38.559Z,95780.19
2022-12-04T18:40:08.527Z,95781.25
2022-12-04T18:42:37.126Z,95782.19
2022-12-04T18:45:06.089Z,95789.78
2022-12-04T18:47:34.377Z,95802.63
2022-12-04T18:50:04.127Z,95791.19
2022-12-04T18:52:36.307Z,95797.31
2022-12-04T18:55:05.226Z,95792.94
2022-12-04T18:57:33.524Z,95787.41
2022-12-04T19:00:02.141Z,95790.13
2022-12-04T19:02:30.493Z,95787.44
2022-12-04T19:04:58.790Z,95787.91
2022-12-04T19:07:28.540Z,95787.38
2022-12-04T19:10:12.241Z,95789.63
2022-12-04T19:12:40.621Z,95776.97
2022-12-04T19:15:09.415Z,95775.56
2022-12-04T19:17:37.872Z,95787.00
2022-12-04T19:20:07.220Z,95785.38
2022-12-04T19:22:36.933Z,95803.34
2022-12-04T19:25:06.299Z,95790.25
2022-12-04T19:27:34.670Z,95803.94
2022-12-04T19:30:03.001Z,95804.75
2022-12-04T19:32:31.218Z,95812.34
2022-12-04T19:34:59.452Z,95819.97
2022-12-04T19:37:27.738Z,95823.28
2022-12-04T19:39:58.187Z,95828.56
2022-12-04T19:42:26.510Z,95834.25
2022-12-04T19:44:54.650Z,95826.66
2022-12-04T19:47:22.921Z,95836.75
2022-12-04T19:49:51.364Z,95838.81
2022-12-04T19:52:19.636Z,95840.44
2022-12-04T19:54:47.923Z,95853.28
2022-12-04T19:57:17.661Z,95853.28
2022-12-04T19:59:46.838Z,95862.91
2022-12-04T20:02:15.663Z,95865.69
2022-12-04T20:04:44.183Z,95860.88
2022-12-04T20:07:12.554Z,95867.75
2022-12-04T20:09:40.877Z,95873.16
2022-12-04T20:12:09.370Z,95881.31
2022-12-04T20:14:39.154Z,95874.50
2022-12-04T20:17:07.464Z,95886.94
2022-12-04T20:19:35.919Z,95873.97
2022-12-04T20:22:04.251Z,95873.31
2022-12-04T20:24:32.606Z,95880.13
2022-12-04T20:27:02.580Z,95883.56
2022-12-04T20:29:30.823Z,95895.38
2022-12-04T20:32:00.384Z,95894.69
2022-12-04T20:34:28.598Z,95901.28
2022-12-04T20:36:58.007Z,95909.28
2022-12-04T20:39:26.339Z,95902.28
2022-12-04T20:41:54.613Z,95904.34
2022-12-04T20:44:22.935Z,95912.09
2022-12-04T20:46:51.329Z,95911.78
2022-12-04T20:49:22.388Z,95911.78
2022-12-04T20:51:52.241Z,95914.72
2022-12-04T20:54:22.589Z,95914.84
2022-12-04T20:56:53.102Z,95918.00
2022-12-04T20:59:23.244Z,95917.59
2022-12-04T21:01:52.600Z,95918.94
2022-12-04T21:04:23.044Z,95915.75
2022-12-04T21:06:51.297Z,95910.69
2022-12-04T21:09:21.559Z,95918.84
2022-12-04T21:11:51.634Z,95912.78
2022-12-04T21:14:38.965Z,95926.03
2022-12-04T21:17:09.532Z,95926.97
2022-12-04T21:19:39.010Z,95930.97
2022-12-04T21:22:07.367Z,95929.72
2022-12-04T21:24:38.677Z,95928.81
2022-12-04T21:27:09.089Z,95936.19
2022-12-04T21:29:37.494Z,95927.69
2022-12-04T21:32:06.809Z,95939.22
2022-12-04T21:34:35.282Z,95938.84
2022-12-04T21:37:04.975Z,95928.06
2022-12-04T21:39:33.847Z,95931.69
2022-12-04T21:42:19.838Z,95931.84
2022-12-04T21:44:48.291Z,95932.34
2022-12-04T21:47:16.539Z,95936.75
2022-12-04T21:49:45.130Z,95930.03
2022-12-04T21:52:14.856Z,95931.41
2022-12-04T21:54:43.216Z,95923.53
2022-12-04T21:57:11.444Z,95921.19
2022-12-04T21:59:39.753Z,95924.50
2022-12-04T22:02:08.272Z,95932.25
2022-12-04T22:04:36.640Z,95939.41
2022-12-04T22:07:05.047Z,95935.25
2022-12-04T22:09:34.931Z,95941.63
2022-12-04T22:12:14.643Z,95946.03
2022-12-04T22:14:51.489Z,95951.03
2022-12-04T22:17:19.692Z,95948.25
2022-12-04T22:19:47.969Z,95946.44
2022-12-04T22:22:16.249Z,95962.47
2022-12-04T22:24:45.838Z,95962.31
2022-12-04T22:27:15.331Z,95966.03
2022-12-04T22:29:51.377Z,95965.56
2022-12-04T22:32:19.891Z,95968.34
2022-12-04T22:34:48.729Z,95972.94
2022-12-04T22:37:17.030Z,95974.69
2022-12-04T22:39:46.596Z,95973.47
2022-12-04T22:42:14.819Z,95981.69
2022-12-04T22:44:43.131Z,95977.44
2022-12-04T22:47:11.509Z,95984.81
2022-12-04T22:49:39.872Z,95978.13
2022-12-04T22:52:08.069Z,95979.50
2022-12-04T22:54:36.329Z,96001.88
2022-12-04T22:57:06.190Z,96004.06
2022-12-04T22:59:34.511Z,96006.34
2022-12-04T23:02:02.727Z,95995.09
2022-12-04T23:04:31.101Z,95999.88
2022-12-04T23:06:59.386Z,96006.25
2022-12-04T23:09:27.944Z,96022.38
2022-12-04T23:11:56.619Z,96027.16
2022-12-04T23:14:27.123Z,96020.69
2022-12-04T23:16:55.985Z,96013.16
2022-12-04T23:19:24.693Z,96008.97
2022-12-04T23:21:56.854Z,96017.47
2022-12-04T23:24:25.906Z,96016.44
2022-12-04T23:26:54.323Z,96017.53
2022-12-04T23:29:51.478Z,96017.56
2022-12-04T23:32:12.111Z,96016.97
2022-12-04T23:34:40.550Z,96016.31
2022-12-04T23:37:08.832Z,96003.97
2022-12-04T23:39:37.113Z,96007.88
2022-12-04T23:42:05.407Z,96016.16
2022-12-04T23:44:33.613Z,96013.41
2022-12-04T23:47:02.024Z,96017.31
2022-12-04T23:49:31.684Z,96021.97
2022-12-04T23:51:59.967Z,96012.91
2022-12-04T23:54:30.184Z,96030.38
2022-12-04T23:56:58.469Z,96028.06
2022-12-04T23:59:26.788Z,96028.47
